createdAt,value
2022-10-17T04:27:07.676Z,12.44
2022-10-17T04:32:33.251Z,12.42
2022-10-17T04:38:02.560Z,12.39
2022-10-17T04:43:23.820Z,12.39
2022-10-17T04:48:46.002Z,12.39
2022-10-17T04:54:06.906Z,12.37
2022-10-17T04:59:29.127Z,12.38
2022-10-17T05:05:05.519Z,12.38
2022-10-17T05:10:26.460Z,12.37
2022-10-17T05:15:48.871Z,12.39
2022-10-17T05:21:10.224Z,12.40
2022-10-17T05:26:32.481Z,12.37
2022-10-17T05:31:53.494Z,12.39
2022-10-17T05:37:14.778Z,12.37
2022-10-17T05:48:06.635Z,12.45
2022-10-17T05:53:31.658Z,12.44
2022-10-17T05:59:00.726Z,12.48
2022-10-17T06:04:49.282Z,12.52
2022-10-17T06:10:15.058Z,12.58
2022-10-17T06:15:36.361Z,12.61
2022-10-17T06:21:12.144Z,12.70
2022-10-17T06:26:38.401Z,12.78
2022-10-17T06:32:01.270Z,12.94
2022-10-17T06:37:22.492Z,13.04
2022-10-17T06:42:43.878Z,13.09
2022-10-17T06:48:18.655Z,13.16
2022-10-17T06:54:03.167Z,13.27
2022-10-17T06:59:41.901Z,13.38
2022-10-17T07:05:06.554Z,13.63
2022-10-17T07:10:28.977Z,13.87
2022-10-17T07:15:49.754Z,14.27
2022-10-17T07:21:11.634Z,14.68
2022-10-17T07:26:34.641Z,14.98
2022-10-17T07:31:55.985Z,15.09
2022-10-17T07:37:17.248Z,15.48
2022-10-17T07:42:44.498Z,15.82
2022-10-17T07:48:06.535Z,15.88
2022-10-17T07:53:27.750Z,16.32
2022-10-17T07:58:48.736Z,16.80
2022-10-17T08:04:09.441Z,17.05
2022-10-17T08:09:30.280Z,17.55
2022-10-17T08:14:51.086Z,17.97
2022-10-17T08:20:12.442Z,18.64
2022-10-17T08:25:33.463Z,19.62
2022-10-17T08:31:02.479Z,20.52
2022-10-17T08:36:23.494Z,22.16
2022-10-17T08:41:52.227Z,29.49
2022-10-17T08:47:19.722Z,35.39
2022-10-17T08:52:49.383Z,37.80
2022-10-17T08:58:15.415Z,38.06
2022-10-17T09:04:27.001Z,33.30
2022-10-17T09:09:56.707Z,31.05
2022-10-17T09:15:51.235Z,29.64
2022-10-17T09:21:28.916Z,28.70
2022-10-17T09:26:51.264Z,27.47
2022-10-17T09:32:17.361Z,27.19
2022-10-17T09:37:38.370Z,27.12
2022-10-17T09:43:01.598Z,25.67
2022-10-17T09:48:35.997Z,24.65
2022-10-17T09:54:01.711Z,24.26
2022-10-17T09:59:56.411Z,24.12
2022-10-17T10:05:21.752Z,23.82
2022-10-17T10:10:44.174Z,23.87
2022-10-17T10:16:31.533Z,23.91
2022-10-17T10:21:58.232Z,23.90
2022-10-17T10:27:29.290Z,23.90
2022-10-17T10:32:50.246Z,24.19
2022-10-17T10:38:17.479Z,24.05
2022-10-17T10:43:43.733Z,24.03
2022-10-17T10:49:24.624Z,24.08
2022-10-17T10:55:02.272Z,24.33
2022-10-17T11:00:26.539Z,24.39
2022-10-17T11:05:56.259Z,24.54
2022-10-17T11:11:33.562Z,24.50
2022-10-17T11:17:18.186Z,24.55
2022-10-17T11:22:44.353Z,24.77
2022-10-17T11:28:14.373Z,24.71
2022-10-17T11:33:50.580Z,24.54
2022-10-17T11:39:29.677Z,24.47
2022-10-17T11:44:54.509Z,24.45
2022-10-17T11:56:26.093Z,24.68
2022-10-17T12:02:03.881Z,24.74
2022-10-17T12:07:40.603Z,24.57
2022-10-17T12:13:29.829Z,24.45
2022-10-17T12:19:10.801Z,24.66
2022-10-17T12:24:44.024Z,24.52
2022-10-17T12:30:07.098Z,24.74
2022-10-17T12:35:30.202Z,24.94
2022-10-17T12:40:57.046Z,25.71
2022-10-17T12:47:00.310Z,26.46
2022-10-17T12:52:31.507Z,26.94
2022-10-17T12:57:52.465Z,26.85
2022-10-17T13:03:17.575Z,26.34
2022-10-17T13:08:44.783Z,25.57
2022-10-17T13:14:12.915Z,25.19
2022-10-17T13:19:45.460Z,25.38
2022-10-17T13:25:16.185Z,25.23
2022-10-17T13:30:37.340Z,24.98
2022-10-17T13:36:00.790Z,24.89
2022-10-17T13:41:37.077Z,24.86
2022-10-17T13:46:58.395Z,24.70
2022-10-17T13:52:22.256Z,24.71
2022-10-17T13:57:43.098Z,24.56
2022-10-17T14:03:04.683Z,24.32
2022-10-17T14:08:25.957Z,24.08
2022-10-17T14:13:50.701Z,23.90
2022-10-17T14:19:33.215Z,23.82
2022-10-17T14:24:55.763Z,23.73
2022-10-17T14:30:58.339Z,23.57
2022-10-17T14:36:21.388Z,23.38
2022-10-17T14:41:45.573Z,23.31
2022-10-17T14:47:41.792Z,23.20
2022-10-17T14:53:05.276Z,22.90
2022-10-17T14:58:29.175Z,22.73
2022-10-17T15:03:50.245Z,22.69
2022-10-17T15:09:11.613Z,22.50
2022-10-17T15:14:32.552Z,22.29
2022-10-17T15:19:54.545Z,22.15
2022-10-17T15:25:15.421Z,22.04
2022-10-17T15:30:37.158Z,21.93
2022-10-17T15:41:26.191Z,21.67
2022-10-17T15:46:47.199Z,21.50
2022-10-17T15:52:08.944Z,21.39
2022-10-17T15:57:34.184Z,21.24
2022-10-17T16:02:55.012Z,21.14
2022-10-17T16:08:15.796Z,21.01
2022-10-17T16:13:37.705Z,20.90
2022-10-17T16:18:59.311Z,20.80
2022-10-17T16:24:19.979Z,20.70
2022-10-17T16:29:40.845Z,20.58
2022-10-17T16:35:01.633Z,20.51
2022-10-17T16:40:22.912Z,20.43
2022-10-17T16:45:43.817Z,20.33
2022-10-17T16:51:04.599Z,20.23
2022-10-17T16:56:29.673Z,20.16
2022-10-17T17:01:50.973Z,20.10
2022-10-17T17:07:12.223Z,20.00
2022-10-17T17:12:36.934Z,19.92
2022-10-17T17:18:00.323Z,19.88
2022-10-17T17:23:23.432Z,19.81
2022-10-17T17:28:44.737Z,19.77
2022-10-17T17:34:06.008Z,19.68
2022-10-17T17:39:27.130Z,19.61
2022-10-17T17:44:49.230Z,19.57
2022-10-17T17:50:10.452Z,19.51
2022-10-17T17:55:31.105Z,19.41
2022-10-17T18:00:52.193Z,19.36
2022-10-17T18:06:13.483Z,19.27
2022-10-17T18:11:35.335Z,19.19
2022-10-17T18:16:56.402Z,19.08
2022-10-17T18:22:17.283Z,18.94
2022-10-17T18:27:38.308Z,18.81
2022-10-17T18:32:58.980Z,18.73
2022-10-17T18:38:19.868Z,18.61
2022-10-17T18:43:42.880Z,18.57
2022-10-17T18:49:04.194Z,18.54
2022-10-17T18:54:24.923Z,18.46
2022-10-17T18:59:45.822Z,18.34
2022-10-17T19:05:06.889Z,18.33
2022-10-17T19:10:28.054Z,18.26
2022-10-17T19:15:48.985Z,18.20
2022-10-17T19:21:11.974Z,18.18
2022-10-17T19:26:35.277Z,18.15
2022-10-17T19:37:22.030Z,18.15
2022-10-17T19:42:42.817Z,18.09
2022-10-17T19:48:03.897Z,18.05
2022-10-17T19:53:25.276Z,17.98
2022-10-17T19:58:47.650Z,17.93
2022-10-17T20:04:10.981Z,17.84
2022-10-17T20:09:31.854Z,17.79
2022-10-17T20:14:52.579Z,17.70
2022-10-17T20:20:13.841Z,17.61
2022-10-17T20:25:38.109Z,17.58
2022-10-17T20:30:58.914Z,17.58
2022-10-17T20:36:23.274Z,17.59
2022-10-17T20:41:45.150Z,17.61
2022-10-17T20:47:11.897Z,17.59
2022-10-17T20:52:36.978Z,17.50
2022-10-17T20:57:58.531Z,17.57
2022-10-17T21:03:19.605Z,17.56
2022-10-17T21:08:40.678Z,17.53
2022-10-17T21:14:05.219Z,17.43
2022-10-17T21:19:26.351Z,17.39
2022-10-17T21:24:47.407Z,17.28
2022-10-17T21:30:08.987Z,17.20
2022-10-17T21:35:30.204Z,17.16
2022-10-17T21:40:52.591Z,17.01
2022-10-17T21:46:18.185Z,16.98
2022-10-17T21:51:39.427Z,17.01
2022-10-17T21:57:00.862Z,17.02
